sensor_id;sensor_type;location;lat;lon;timestamp;pressure;altitude;pressure_sealevel;temperature;humidity
10145;BME280;5113;41.822;23.564;2022-12-24T00:00:04;-10895.13;;;-1.43;100.00
10145;BME280;5113;41.822;23.564;2022-12-24T00:03:11;-10902.25;;;-1.17;100.00
10145;BME280;5113;41.822;23.564;2022-12-24T00:06:19;-10897.06;;;-1.36;100.00
10145;BME280;5113;41.822;23.564;2022-12-24T00:09:25;-10889.22;;;-1.64;100.00
10145;BME280;5113;41.822;23.564;2022-12-24T00:12:33;-10879.03;;;-2.01;100.00
10145;BME280;5113;41.822;23.564;2022-12-24T00:15:39;-10873.56;;;-2.21;100.00
10145;BME280;5113;41.822;23.564;2022-12-24T00:18:46;-10874.13;;;-2.19;100.00
10145;BME280;5113;41.822;23.564;2022-12-24T00:21:52;-10871.75;;;-2.27;100.00
10145;BME280;5113;41.822;23.564;2022-12-24T00:24:58;-10889.66;;;-1.62;100.00
10145;BME280;5113;41.822;23.564;2022-12-24T00:28:06;-10896.50;;;-1.38;100.00
10145;BME280;5113;41.822;23.564;2022-12-24T00:31:14;-10897.91;;;-1.33;100.00
10145;BME280;5113;41.822;23.564;2022-12-24T00:34:22;-10898.47;;;-1.30;100.00
10145;BME280;5113;41.822;23.564;2022-12-24T00:37:28;-10902.81;;;-1.15;100.00
10145;BME280;5113;41.822;23.564;2022-12-24T00:40:34;-10895.25;;;-1.42;100.00
10145;BME280;5113;41.822;23.564;2022-12-24T00:43:42;-10895.69;;;-1.41;100.00
10145;BME280;5113;41.822;23.564;2022-12-24T00:46:48;-10877.47;;;-2.07;100.00
10145;BME280;5113;41.822;23.564;2022-12-24T00:49:55;-10870.63;;;-2.31;100.00
10145;BME280;5113;41.822;23.564;2022-12-24T00:53:01;-10873.97;;;-2.19;100.00
10145;BME280;5113;41.822;23.564;2022-12-24T00:56:08;-10864.75;;;-2.53;100.00
10145;BME280;5113;41.822;23.564;2022-12-24T00:59:16;-10886.72;;;-1.73;100.00
10145;BME280;5113;41.822;23.564;2022-12-24T01:02:23;-10881.81;;;-1.91;100.00
10145;BME280;5113;41.822;23.564;2022-12-24T01:05:30;-10885.59;;;-1.77;100.00
10145;BME280;5113;41.822;23.564;2022-12-24T01:08:36;-10878.03;;;-2.05;100.00
10145;BME280;5113;41.822;23.564;2022-12-24T01:11:43;-10875.81;;;-2.13;100.00
10145;BME280;5113;41.822;23.564;2022-12-24T01:14:51;-10884.63;;;-1.81;100.00
10145;BME280;5113;41.822;23.564;2022-12-24T01:17:57;-10879.44;;;-2.00;100.00
10145;BME280;5113;41.822;23.564;2022-12-24T01:21:04;-10885.03;;;-1.79;100.00
10145;BME280;5113;41.822;23.564;2022-12-24T01:24:13;-10882.25;;;-1.89;100.00
10145;BME280;5113;41.822;23.564;2022-12-24T01:27:20;-10883.63;;;-1.84;100.00
10145;BME280;5113;41.822;23.564;2022-12-24T01:30:28;-10889.66;;;-1.62;100.00
10145;BME280;5113;41.822;23.564;2022-12-24T01:33:35;-10895.13;;;-1.43;100.00
10145;BME280;5113;41.822;23.564;2022-12-24T01:36:41;-10890.78;;;-1.58;100.00
10145;BME280;5113;41.822;23.564;2022-12-24T01:39:47;-10878.31;;;-2.04;100.00
10145;BME280;5113;41.822;23.564;2022-12-24T01:42:54;-10889.66;;;-1.62;100.00
10145;BME280;5113;41.822;23.564;2022-12-24T01:46:17;-10884.75;;;-1.80;100.00
10145;BME280;5113;41.822;23.564;2022-12-24T01:49:25;-10873.41;;;-2.21;100.00
10145;BME280;5113;41.822;23.564;2022-12-24T01:52:33;-10865.16;;;-2.51;100.00
10145;BME280;5113;41.822;23.564;2022-12-24T01:55:42;-10864.34;;;-2.54;100.00
10145;BME280;5113;41.822;23.564;2022-12-24T01:58:52;-10875.25;;;-2.15;100.00
10145;BME280;5113;41.822;23.564;2022-12-24T02:02:02;-10867.84;;;-2.42;100.00
10145;BME280;5113;41.822;23.564;2022-12-24T02:05:13;-10871.31;;;-2.29;100.00
10145;BME280;5113;41.822;23.564;2022-12-24T02:08:21;-10876.63;;;-2.10;100.00
10145;BME280;5113;41.822;23.564;2022-12-24T02:11:27;-10869.38;;;-2.36;100.00
10145;BME280;5113;41.822;23.564;2022-12-24T02:14:35;-10885.88;;;-1.76;100.00
10145;BME280;5113;41.822;23.564;2022-12-24T02:17:49;-10870.06;;;-2.34;100.00
10145;BME280;5113;41.822;23.564;2022-12-24T02:21:28;-10872.88;;;-2.23;100.00
10145;BME280;5113;41.822;23.564;2022-12-24T02:25:24;-10874.41;;;-2.18;100.00
10145;BME280;5113;41.822;23.564;2022-12-24T02:28:49;-10872.16;;;-2.26;100.00
10145;BME280;5113;41.822;23.564;2022-12-24T02:32:03;-10862.94;;;-2.59;100.00
10145;BME280;5113;41.822;23.564;2022-12-24T02:35:14;-10875.38;;;-2.14;100.00
10145;BME280;5113;41.822;23.564;2022-12-24T02:38:25;-10878.59;;;-2.03;100.00
10145;BME280;5113;41.822;23.564;2022-12-24T02:41:35;-10883.34;;;-1.85;100.00
10145;BME280;5113;41.822;23.564;2022-12-24T02:45:01;-10882.38;;;-1.89;100.00
10145;BME280;5113;41.822;23.564;2022-12-24T02:48:09;-10873.00;;;-2.23;100.00
10145;BME280;5113;41.822;23.564;2022-12-24T02:51:21;-10871.19;;;-2.29;100.00
10145;BME280;5113;41.822;23.564;2022-12-24T02:54:28;-10857.75;;;-2.78;100.00
10145;BME280;5113;41.822;23.564;2022-12-24T02:57:45;-10874.41;;;-2.18;100.00
10145;BME280;5113;41.822;23.564;2022-12-24T03:01:01;-10871.47;;;-2.28;100.00
10145;BME280;5113;41.822;23.564;2022-12-24T03:04:30;-10877.47;;;-2.07;100.00
10145;BME280;5113;41.822;23.564;2022-12-24T03:07:54;-10873.00;;;-2.23;100.00
10145;BME280;5113;41.822;23.564;2022-12-24T03:11:07;-10867.69;;;-2.42;100.00
10145;BME280;5113;41.822;23.564;2022-12-24T03:14:15;-10859.16;;;-2.73;100.00
10145;BME280;5113;41.822;23.564;2022-12-24T03:17:22;-10865.16;;;-2.51;100.00
10145;BME280;5113;41.822;23.564;2022-12-24T03:20:35;-10858.31;;;-2.76;100.00
10145;BME280;5113;41.822;23.564;2022-12-24T03:23:43;-10856.34;;;-2.83;100.00
10145;BME280;5113;41.822;23.564;2022-12-24T03:26:50;-10846.72;;;-3.18;100.00
10145;BME280;5113;41.822;23.564;2022-12-24T03:29:57;-10837.19;;;-3.53;100.00
10145;BME280;5113;41.822;23.564;2022-12-24T03:33:04;-10840.56;;;-3.41;100.00
10145;BME280;5113;41.822;23.564;2022-12-24T03:36:12;-10844.47;;;-3.26;100.00
10145;BME280;5113;41.822;23.564;2022-12-24T03:39:18;-10848.09;;;-3.13;100.00
10145;BME280;5113;41.822;23.564;2022-12-24T03:42:25;-10863.78;;;-2.56;100.00
10145;BME280;5113;41.822;23.564;2022-12-24T03:45:32;-10861.25;;;-2.66;100.00
10145;BME280;5113;41.822;23.564;2022-12-24T03:48:38;-10864.34;;;-2.54;100.00
10145;BME280;5113;41.822;23.564;2022-12-24T03:51:45;-10857.63;;;-2.79;100.00
10145;BME280;5113;41.822;23.564;2022-12-24T03:54:52;-10858.19;;;-2.77;100.00
10145;BME280;5113;41.822;23.564;2022-12-24T03:57:58;-10868.81;;;-2.38;100.00
10145;BME280;5113;41.822;23.564;2022-12-24T04:01:04;-10858.03;;;-2.77;100.00
10145;BME280;5113;41.822;23.564;2022-12-24T04:04:11;-10867.13;;;-2.44;100.00
10145;BME280;5113;41.822;23.564;2022-12-24T04:07:18;-10864.06;;;-2.55;100.00
10145;BME280;5113;41.822;23.564;2022-12-24T04:10:25;-10867.13;;;-2.44;100.00
10145;BME280;5113;41.822;23.564;2022-12-24T04:13:31;-10866.28;;;-2.47;100.00
10145;BME280;5113;41.822;23.564;2022-12-24T04:16:37;-10870.22;;;-2.33;100.00
10145;BME280;5113;41.822;23.564;2022-12-24T04:19:44;-10868.81;;;-2.38;100.00
10145;BME280;5113;41.822;23.564;2022-12-24T04:22:53;-10865.16;;;-2.51;100.00
10145;BME280;5113;41.822;23.564;2022-12-24T04:26:00;-10863.78;;;-2.56;100.00
10145;BME280;5113;41.822;23.564;2022-12-24T04:29:06;-10861.81;;;-2.63;100.00
10145;BME280;5113;41.822;23.564;2022-12-24T04:32:13;-10866.28;;;-2.47;100.00
10145;BME280;5113;41.822;23.564;2022-12-24T04:35:19;-10863.06;;;-2.59;100.00
10145;BME280;5113;41.822;23.564;2022-12-24T04:38:27;-10864.19;;;-2.55;100.00
10145;BME280;5113;41.822;23.564;2022-12-24T04:41:34;-10859.28;;;-2.73;100.00
10145;BME280;5113;41.822;23.564;2022-12-24T04:44:41;-10849.50;;;-3.08;100.00
10145;BME280;5113;41.822;23.564;2022-12-24T04:47:47;-10845.44;;;-3.23;100.00
10145;BME280;5113;41.822;23.564;2022-12-24T04:50:54;-10853.28;;;-2.94;100.00
10145;BME280;5113;41.822;23.564;2022-12-24T04:54:01;-10863.22;;;-2.58;100.00
10145;BME280;5113;41.822;23.564;2022-12-24T04:57:08;-10844.75;;;-3.25;100.00
10145;BME280;5113;41.822;23.564;2022-12-24T05:00:15;-10834.41;;;-3.63;100.00
10145;BME280;5113;41.822;23.564;2022-12-24T05:03:21;-10856.50;;;-2.83;100.00
10145;BME280;5113;41.822;23.564;2022-12-24T05:06:30;-10851.19;;;-3.02;100.00
10145;BME280;5113;41.822;23.564;2022-12-24T05:09:37;-10843.91;;;-3.28;100.00
10145;BME280;5113;41.822;23.564;2022-12-24T05:12:43;-10835.25;;;-3.60;100.00
10145;BME280;5113;41.822;23.564;2022-12-24T05:15:50;-10846.56;;;-3.19;100.00
10145;BME280;5113;41.822;23.564;2022-12-24T05:18:56;-10857.47;;;-2.79;100.00
10145;BME280;5113;41.822;23.564;2022-12-24T05:22:03;-10857.75;;;-2.78;100.00
10145;BME280;5113;41.822;23.564;2022-12-24T05:25:32;-10864.59;;;-2.53;100.00
10145;BME280;5113;41.822;23.564;2022-12-24T05:29:00;-10862.94;;;-2.59;100.00
10145;BME280;5113;41.822;23.564;2022-12-24T05:32:07;-10857.75;;;-2.78;100.00
10145;BME280;5113;41.822;23.564;2022-12-24T05:35:13;-10861.25;;;-2.66;100.00
10145;BME280;5113;41.822;23.564;2022-12-24T05:38:20;-10863.50;;;-2.57;100.00
10145;BME280;5113;41.822;23.564;2022-12-24T05:41:28;-10866.84;;;-2.45;100.00
10145;BME280;5113;41.822;23.564;2022-12-24T05:44:35;-10857.75;;;-2.78;100.00
10145;BME280;5113;41.822;23.564;2022-12-24T05:47:42;-10863.78;;;-2.56;100.00
10145;BME280;5113;41.822;23.564;2022-12-24T05:50:48;-10865.44;;;-2.50;100.00
10145;BME280;5113;41.822;23.564;2022-12-24T05:53:54;-10854.97;;;-2.88;100.00
10145;BME280;5113;41.822;23.564;2022-12-24T05:57:02;-10855.94;;;-2.85;100.00
10145;BME280;5113;41.822;23.564;2022-12-24T06:00:09;-10852.31;;;-2.98;100.00
10145;BME280;5113;41.822;23.564;2022-12-24T06:03:16;-10861.66;;;-2.64;100.00
10145;BME280;5113;41.822;23.564;2022-12-24T06:06:23;-10861.25;;;-2.66;100.00
10145;BME280;5113;41.822;23.564;2022-12-24T06:09:30;-10864.06;;;-2.55;100.00
10145;BME280;5113;41.822;23.564;2022-12-24T06:12:37;-10864.06;;;-2.55;100.00
10145;BME280;5113;41.822;23.564;2022-12-24T06:15:44;-10855.09;;;-2.88;100.00
10145;BME280;5113;41.822;23.564;2022-12-24T06:18:50;-10845.72;;;-3.22;100.00
10145;BME280;5113;41.822;23.564;2022-12-24T06:21:56;-10849.78;;;-3.07;100.00
10145;BME280;5113;41.822;23.564;2022-12-24T06:25:03;-10857.06;;;-2.81;100.00
10145;BME280;5113;41.822;23.564;2022-12-24T06:28:11;-10843.34;;;-3.30;100.00
10145;BME280;5113;41.822;23.564;2022-12-24T06:31:19;-10849.38;;;-3.09;100.00
10145;BME280;5113;41.822;23.564;2022-12-24T06:34:26;-10863.50;;;-2.57;100.00
10145;BME280;5113;41.822;23.564;2022-12-24T06:37:32;-10859.28;;;-2.73;100.00
10145;BME280;5113;41.822;23.564;2022-12-24T06:40:40;-10861.53;;;-2.64;100.00
10145;BME280;5113;41.822;23.564;2022-12-24T06:43:50;-10858.44;;;-2.76;100.00
10145;BME280;5113;41.822;23.564;2022-12-24T06:46:57;-10860.97;;;-2.67;100.00
10145;BME280;5113;41.822;23.564;2022-12-24T06:50:04;-10863.78;;;-2.56;100.00
10145;BME280;5113;41.822;23.564;2022-12-24T06:53:10;-10871.47;;;-2.28;100.00
10145;BME280;5113;41.822;23.564;2022-12-24T06:56:18;-10867.41;;;-2.43;100.00
10145;BME280;5113;41.822;23.564;2022-12-24T06:59:26;-10874.25;;;-2.18;100.00
10145;BME280;5113;41.822;23.564;2022-12-24T07:02:33;-10872.72;;;-2.24;100.00
10145;BME280;5113;41.822;23.564;2022-12-24T07:05:40;-10889.94;;;-1.61;100.00
10145;BME280;5113;41.822;23.564;2022-12-24T07:08:46;-10890.06;;;-1.61;100.00
10145;BME280;5113;41.822;23.564;2022-12-24T07:11:52;-10891.63;;;-1.55;100.00
10145;BME280;5113;41.822;23.564;2022-12-24T07:15:00;-10891.47;;;-1.56;100.00
10145;BME280;5113;41.822;23.564;2022-12-24T07:18:07;-10892.59;;;-1.52;100.00
10145;BME280;5113;41.822;23.564;2022-12-24T07:21:13;-10893.56;;;-1.48;100.00
10145;BME280;5113;41.822;23.564;2022-12-24T07:24:19;-10903.78;;;-1.11;100.00
10145;BME280;5113;41.822;23.564;2022-12-24T07:27:26;-10900.44;;;-1.23;100.00
10145;BME280;5113;41.822;23.564;2022-12-24T07:30:33;-10918.34;;;-0.58;100.00
10145;BME280;5113;41.822;23.564;2022-12-24T07:33:40;-10910.78;;;-0.86;100.00
10145;BME280;5113;41.822;23.564;2022-12-24T07:36:46;-10909.41;;;-0.91;100.00
10145;BME280;5113;41.822;23.564;2022-12-24T07:39:52;-10902.66;;;-1.15;100.00
10145;BME280;5113;41.822;23.564;2022-12-24T07:42:58;-10914.72;;;-0.72;100.00
10145;BME280;5113;41.822;23.564;2022-12-24T07:46:06;-10910.50;;;-0.87;100.00
10145;BME280;5113;41.822;23.564;2022-12-24T07:49:12;-10923.69;;;-0.39;100.00
10145;BME280;5113;41.822;23.564;2022-12-24T07:52:18;-10941.88;;;0.27;100.00
10145;BME280;5113;41.822;23.564;2022-12-24T07:55:25;-10938.81;;;0.16;100.00
10145;BME280;5113;41.822;23.564;2022-12-24T07:58:31;-10927.88;;;-0.24;100.00
10145;BME280;5113;41.822;23.564;2022-12-24T08:01:39;-10942.44;;;0.29;100.00
10145;BME280;5113;41.822;23.564;2022-12-24T08:04:45;-10938.09;;;0.13;100.00
10145;BME280;5113;41.822;23.564;2022-12-24T08:07:52;-10926.19;;;-0.30;100.00
10145;BME280;5113;41.822;23.564;2022-12-24T08:11:00;-10960.78;;;0.95;100.00
10145;BME280;5113;41.822;23.564;2022-12-24T08:14:07;-10969.34;;;1.26;100.00
10145;BME280;5113;41.822;23.564;2022-12-24T08:17:15;-10978.03;;;1.58;100.00
10145;BME280;5113;41.822;23.564;2022-12-24T08:20:21;-10956.72;;;0.81;100.00
10145;BME280;5113;41.822;23.564;2022-12-24T08:23:27;-10965.16;;;1.11;100.00
10145;BME280;5113;41.822;23.564;2022-12-24T08:26:34;-10960.50;;;0.94;100.00
10145;BME280;5113;41.822;23.564;2022-12-24T08:29:40;-10953.09;;;0.68;100.00
10145;BME280;5113;41.822;23.564;2022-12-24T08:32:48;-10969.34;;;1.26;100.00
10145;BME280;5113;41.822;23.564;2022-12-24T08:35:55;-10968.78;;;1.24;100.00
10145;BME280;5113;41.822;23.564;2022-12-24T08:39:01;-10979.84;;;1.64;100.00
10145;BME280;5113;41.822;23.564;2022-12-24T08:42:08;-10981.13;;;1.69;100.00
10145;BME280;5113;41.822;23.564;2022-12-24T08:45:15;-10976.63;;;1.53;100.00
10145;BME280;5113;41.822;23.564;2022-12-24T08:48:22;-10983.34;;;1.77;100.00
10145;BME280;5113;41.822;23.564;2022-12-24T08:51:29;-10987.97;;;1.94;100.00
10145;BME280;5113;41.822;23.564;2022-12-24T08:54:35;-10993.88;;;2.15;100.00
10145;BME280;5113;41.822;23.564;2022-12-24T08:57:41;-10992.34;;;2.10;100.00
10145;BME280;5113;41.822;23.564;2022-12-24T09:00:48;-10994.44;;;2.17;100.00
10145;BME280;5113;41.822;23.564;2022-12-24T09:03:55;-10999.47;;;2.36;100.00
10145;BME280;5113;41.822;23.564;2022-12-24T09:07:02;-10993.44;;;2.14;100.00
10145;BME280;5113;41.822;23.564;2022-12-24T09:10:09;-10999.91;;;2.37;100.00
10145;BME280;5113;41.822;23.564;2022-12-24T09:13:16;-11006.78;;;2.62;100.00
10145;BME280;5113;41.822;23.564;2022-12-24T09:16:22;-11017.16;;;2.99;100.00
10145;BME280;5113;41.822;23.564;2022-12-24T09:19:29;-11012.38;;;2.82;100.00
10145;BME280;5113;41.822;23.564;2022-12-24T09:22:37;-11019.81;;;3.09;100.00
10145;BME280;5113;41.822;23.564;2022-12-24T09:25:44;-11017.72;;;3.02;100.00
10145;BME280;5113;41.822;23.564;2022-12-24T09:28:51;-11020.66;;;3.12;100.00
10145;BME280;5113;41.822;23.564;2022-12-24T09:31:58;-11014.19;;;2.89;100.00
10145;BME280;5113;41.822;23.564;2022-12-24T09:35:06;-11013.78;;;2.87;100.00
10145;BME280;5113;41.822;23.564;2022-12-24T09:38:13;-11017.84;;;3.02;100.00
10145;BME280;5113;41.822;23.564;2022-12-24T09:41:31;-11025.56;;;3.30;100.00
10145;BME280;5113;41.822;23.564;2022-12-24T09:44:47;-11021.91;;;3.17;100.00
10145;BME280;5113;41.822;23.564;2022-12-24T09:47:57;-11020.94;;;3.13;100.00
10145;BME280;5113;41.822;23.564;2022-12-24T09:51:08;-11035.94;;;3.68;100.00
10145;BME280;5113;41.822;23.564;2022-12-24T09:54:18;-11034.53;;;3.62;100.00
10145;BME280;5113;41.822;23.564;2022-12-24T09:57:29;-11029.34;;;3.44;100.00
10145;BME280;5113;41.822;23.564;2022-12-24T10:00:37;-11033.97;;;3.60;100.00
10145;BME280;5113;41.822;23.564;2022-12-24T10:03:51;-11043.94;;;3.96;100.00
10145;BME280;5113;41.822;23.564;2022-12-24T10:07:03;-11050.97;;;4.22;100.00
10145;BME280;5113;41.822;23.564;2022-12-24T10:10:19;-11049.28;;;4.16;100.00
10145;BME280;5113;41.822;23.564;2022-12-24T10:13:38;-11043.66;;;3.95;100.00
10145;BME280;5113;41.822;23.564;2022-12-24T10:16:52;-11051.94;;;4.25;100.00
10145;BME280;5113;41.822;23.564;2022-12-24T10:20:19;-11054.03;;;4.33;100.00
10145;BME280;5113;41.822;23.564;2022-12-24T10:23:35;-11058.53;;;4.49;100.00
10145;BME280;5113;41.822;23.564;2022-12-24T10:26:45;-11063.88;;;4.69;100.00
10145;BME280;5113;41.822;23.564;2022-12-24T10:29:55;-11066.94;;;4.80;100.00
10145;BME280;5113;41.822;23.564;2022-12-24T10:33:13;-11062.03;;;4.62;100.00
10145;BME280;5113;41.822;23.564;2022-12-24T10:36:23;-11084.91;;;5.45;100.00
10145;BME280;5113;41.822;23.564;2022-12-24T10:39:33;-11092.09;;;5.71;100.00
10145;BME280;5113;41.822;23.564;2022-12-24T10:42:40;-11084.50;;;5.43;100.00
10145;BME280;5113;41.822;23.564;2022-12-24T10:45:56;-11081.84;;;5.34;100.00
10145;BME280;5113;41.822;23.564;2022-12-24T10:49:05;-11086.03;;;5.49;100.00
10145;BME280;5113;41.822;23.564;2022-12-24T10:52:14;-11088.16;;;5.56;100.00
10145;BME280;5113;41.822;23.564;2022-12-24T10:55:24;-11103.31;;;6.11;100.00
10145;BME280;5113;41.822;23.564;2022-12-24T10:58:32;-11116.81;;;6.60;100.00
10145;BME280;5113;41.822;23.564;2022-12-24T11:01:44;-11111.75;;;6.42;100.00
10145;BME280;5113;41.822;23.564;2022-12-24T11:04:51;-11101.91;;;6.06;100.00
10145;BME280;5113;41.822;23.564;2022-12-24T11:08:01;-11110.75;;;6.38;100.00
10145;BME280;5113;41.822;23.564;2022-12-24T11:11:11;-11122.41;;;6.80;100.00
10145;BME280;5113;41.822;23.564;2022-12-24T11:14:19;-11140.81;;;7.47;98.97
10145;BME280;5113;41.822;23.564;2022-12-24T11:17:26;-11118.34;;;6.66;99.01
10145;BME280;5113;41.822;23.564;2022-12-24T11:20:33;-11133.38;;;7.20;96.38
10145;BME280;5113;41.822;23.564;2022-12-24T11:23:48;-11139.00;;;7.40;96.30
10145;BME280;5113;41.822;23.564;2022-12-24T11:27:26;-11143.34;;;7.56;94.03
10145;BME280;5113;41.822;23.564;2022-12-24T11:30:34;-11139.00;;;7.40;94.03
10145;BME280;5113;41.822;23.564;2022-12-24T11:33:46;-11151.22;;;7.84;93.75
10145;BME280;5113;41.822;23.564;2022-12-24T11:36:55;-11155.28;;;7.99;90.04
10145;BME280;5113;41.822;23.564;2022-12-24T11:40:02;-11155.00;;;7.98;88.33
10145;BME280;5113;41.822;23.564;2022-12-24T11:43:15;-11167.81;;;8.44;85.31
10145;BME280;5113;41.822;23.564;2022-12-24T11:46:35;-11179.19;;;8.85;82.62
10145;BME280;5113;41.822;23.564;2022-12-24T11:49:42;-11186.34;;;9.11;82.85
10145;BME280;5113;41.822;23.564;2022-12-24T11:52:51;-11170.47;;;8.54;84.64
10145;BME280;5113;41.822;23.564;2022-12-24T11:56:02;-11177.06;;;8.78;87.06
10145;BME280;5113;41.822;23.564;2022-12-24T11:59:17;-11176.78;;;8.77;86.11
10145;BME280;5113;41.822;23.564;2022-12-24T12:02:28;-11171.19;;;8.56;85.97
10145;BME280;5113;41.822;23.564;2022-12-24T12:05:37;-11171.59;;;8.58;90.64
10145;BME280;5113;41.822;23.564;2022-12-24T12:08:45;-11168.50;;;8.47;89.94
10145;BME280;5113;41.822;23.564;2022-12-24T12:11:55;-11175.53;;;8.72;89.41
10145;BME280;5113;41.822;23.564;2022-12-24T12:15:10;-11171.31;;;8.57;88.86
10145;BME280;5113;41.822;23.564;2022-12-24T12:18:20;-11176.50;;;8.76;88.12
10145;BME280;5113;41.822;23.564;2022-12-24T12:21:32;-11185.38;;;9.08;87.32
10145;BME280;5113;41.822;23.564;2022-12-24T12:24:45;-11175.94;;;8.74;89.19
10145;BME280;5113;41.822;23.564;2022-12-24T12:27:57;-11175.94;;;8.74;87.37
10145;BME280;5113;41.822;23.564;2022-12-24T12:31:14;-11163.88;;;8.30;87.77
10145;BME280;5113;41.822;23.564;2022-12-24T12:34:25;-11162.19;;;8.24;88.54
10145;BME280;5113;41.822;23.564;2022-12-24T12:37:37;-11171.19;;;8.56;85.90
10145;BME280;5113;41.822;23.564;2022-12-24T12:41:03;-11161.34;;;8.21;86.93
10145;BME280;5113;41.822;23.564;2022-12-24T12:44:25;-11161.63;;;8.22;84.35
10145;BME280;5113;41.822;23.564;2022-12-24T12:48:03;-11175.38;;;8.72;86.89
10145;BME280;5113;41.822;23.564;2022-12-24T12:51:18;-11156.41;;;8.03;89.19
10145;BME280;5113;41.822;23.564;2022-12-24T12:54:35;-11166.13;;;8.38;90.13
10145;BME280;5113;41.822;23.564;2022-12-24T12:57:46;-11163.31;;;8.28;87.71
10145;BME280;5113;41.822;23.564;2022-12-24T13:00:58;-11156.28;;;8.03;90.67
10145;BME280;5113;41.822;23.564;2022-12-24T13:04:36;-11149.53;;;7.78;90.61
10145;BME280;5113;41.822;23.564;2022-12-24T13:08:15;-11161.63;;;8.22;89.38
10145;BME280;5113;41.822;23.564;2022-12-24T13:11:48;-11151.50;;;7.85;91.46
10145;BME280;5113;41.822;23.564;2022-12-24T13:15:05;-11150.50;;;7.82;92.06
10145;BME280;5113;41.822;23.564;2022-12-24T13:18:41;-11149.09;;;7.77;93.21
10145;BME280;5113;41.822;23.564;2022-12-24T13:21:53;-11152.19;;;7.88;93.12
10145;BME280;5113;41.822;23.564;2022-12-24T13:25:00;-11148.69;;;7.75;92.94
10145;BME280;5113;41.822;23.564;2022-12-24T13:28:32;-11151.63;;;7.86;94.29
10145;BME280;5113;41.822;23.564;2022-12-24T13:31:39;-11148.41;;;7.74;92.40
10145;BME280;5113;41.822;23.564;2022-12-24T13:34:48;-11158.25;;;8.10;91.85
10145;BME280;5113;41.822;23.564;2022-12-24T13:41:50;-11141.66;;;7.50;93.29
10145;BME280;5113;41.822;23.564;2022-12-24T13:48:38;-11146.72;;;7.68;95.39
10145;BME280;5113;41.822;23.564;2022-12-24T13:51:45;-11145.59;;;7.64;95.05
10145;BME280;5113;41.822;23.564;2022-12-24T13:55:05;-11133.78;;;7.21;98.48
10145;BME280;5113;41.822;23.564;2022-12-24T13:58:17;-11136.19;;;7.30;100.00
10145;BME280;5113;41.822;23.564;2022-12-24T14:01:33;-11139.84;;;7.43;98.93
10145;BME280;5113;41.822;23.564;2022-12-24T14:04:40;-11127.06;;;6.97;100.00
10145;BME280;5113;41.822;23.564;2022-12-24T14:07:48;-11142.94;;;7.54;99.96
10145;BME280;5113;41.822;23.564;2022-12-24T14:11:15;-11132.38;;;7.16;100.00
10145;BME280;5113;41.822;23.564;2022-12-24T14:14:26;-11143.91;;;7.58;99.16
10145;BME280;5113;41.822;23.564;2022-12-24T14:17:33;-11138.84;;;7.40;100.00
10145;BME280;5113;41.822;23.564;2022-12-24T14:20:42;-11133.38;;;7.20;100.00
10145;BME280;5113;41.822;23.564;2022-12-24T14:23:52;-11130.13;;;7.08;100.00
10145;BME280;5113;41.822;23.564;2022-12-24T14:27:12;-11119.19;;;6.69;100.00
10145;BME280;5113;41.822;23.564;2022-12-24T14:30:23;-11120.88;;;6.75;100.00
10145;BME280;5113;41.822;23.564;2022-12-24T14:33:29;-11113.72;;;6.49;100.00
10145;BME280;5113;41.822;23.564;2022-12-24T14:36:36;-11117.38;;;6.62;100.00
10145;BME280;5113;41.822;23.564;2022-12-24T14:39:47;-11115.13;;;6.54;100.00
10145;BME280;5113;41.822;23.564;2022-12-24T14:43:08;-11117.50;;;6.62;100.00
10145;BME280;5113;41.822;23.564;2022-12-24T14:46:23;-11111.19;;;6.40;100.00
10145;BME280;5113;41.822;23.564;2022-12-24T14:49:40;-11103.75;;;6.13;100.00
10145;BME280;5113;41.822;23.564;2022-12-24T14:52:55;-11098.81;;;5.95;100.00
10145;BME280;5113;41.822;23.564;2022-12-24T14:56:17;-11099.25;;;5.96;100.00
10145;BME280;5113;41.822;23.564;2022-12-24T14:59:26;-11098.41;;;5.93;100.00
10145;BME280;5113;41.822;23.564;2022-12-24T15:02:50;-11088.84;;;5.59;100.00
10145;BME280;5113;41.822;23.564;2022-12-24T15:05:59;-11087.31;;;5.53;100.00
10145;BME280;5113;41.822;23.564;2022-12-24T15:09:11;-11083.22;;;5.39;100.00
10145;BME280;5113;41.822;23.564;2022-12-24T15:12:19;-11085.19;;;5.46;100.00
10145;BME280;5113;41.822;23.564;2022-12-24T15:15:28;-11079.31;;;5.24;100.00
10145;BME280;5113;41.822;23.564;2022-12-24T15:18:43;-11074.69;;;5.08;100.00
10145;BME280;5113;41.822;23.564;2022-12-24T15:21:51;-11080.28;;;5.28;100.00
10145;BME280;5113;41.822;23.564;2022-12-24T15:24:58;-11077.63;;;5.18;100.00
10145;BME280;5113;41.822;23.564;2022-12-24T15:28:15;-11079.88;;;5.26;100.00
10145;BME280;5113;41.822;23.564;2022-12-24T15:31:24;-11078.47;;;5.21;100.00
10145;BME280;5113;41.822;23.564;2022-12-24T15:34:35;-11073.84;;;5.05;100.00
10145;BME280;5113;41.822;23.564;2022-12-24T15:37:42;-11081.00;;;5.30;100.00
10145;BME280;5113;41.822;23.564;2022-12-24T15:40:48;-11082.69;;;5.37;100.00
10145;BME280;5113;41.822;23.564;2022-12-24T15:43:59;-11080.44;;;5.28;100.00
10145;BME280;5113;41.822;23.564;2022-12-24T15:47:14;-11078.19;;;5.20;100.00
10145;BME280;5113;41.822;23.564;2022-12-24T15:50:27;-11068.34;;;4.85;100.00
10145;BME280;5113;41.822;23.564;2022-12-24T15:53:36;-11077.91;;;5.19;100.00
10145;BME280;5113;41.822;23.564;2022-12-24T15:56:47;-11083.78;;;5.41;100.00
10145;BME280;5113;41.822;23.564;2022-12-24T15:59:55;-11079.88;;;5.26;100.00
10145;BME280;5113;41.822;23.564;2022-12-24T16:03:16;-11083.38;;;5.39;100.00
10145;BME280;5113;41.822;23.564;2022-12-24T16:06:23;-11075.66;;;5.11;100.00
10145;BME280;5113;41.822;23.564;2022-12-24T16:09:40;-11072.72;;;5.01;100.00
10145;BME280;5113;41.822;23.564;2022-12-24T16:12:47;-11074.13;;;5.06;100.00
10145;BME280;5113;41.822;23.564;2022-12-24T16:15:57;-11067.78;;;4.83;100.00
10145;BME280;5113;41.822;23.564;2022-12-24T16:19:06;-11067.94;;;4.83;100.00
10145;BME280;5113;41.822;23.564;2022-12-24T16:22:16;-11075.09;;;5.09;100.00
10145;BME280;5113;41.822;23.564;2022-12-24T16:25:39;-11070.31;;;4.92;100.00
10145;BME280;5113;41.822;23.564;2022-12-24T16:28:46;-11081.41;;;5.32;100.00
10145;BME280;5113;41.822;23.564;2022-12-24T16:31:53;-11075.66;;;5.11;100.00
10145;BME280;5113;41.822;23.564;2022-12-24T16:35:04;-11082.81;;;5.37;100.00
10145;BME280;5113;41.822;23.564;2022-12-24T16:38:12;-11077.06;;;5.16;100.00